sensor_id;sensor_type;location;lat;lon;timestamp;temperature;humidity
36416;DHT22;22447;44.530;18.620;2023-12-29T00:00:42;-0.10;99.90
36416;DHT22;22447;44.530;18.620;2023-12-29T00:03:07;-0.10;99.90
36416;DHT22;22447;44.530;18.620;2023-12-29T00:05:33;-0.10;99.90
36416;DHT22;22447;44.530;18.620;2023-12-29T00:07:59;0.00;99.90
36416;DHT22;22447;44.530;18.620;2023-12-29T00:10:25;0.00;99.90
36416;DHT22;22447;44.530;18.620;2023-12-29T00:12:51;0.00;99.90
36416;DHT22;22447;44.530;18.620;2023-12-29T00:15:19;0.10;99.90
36416;DHT22;22447;44.530;18.620;2023-12-29T00:17:45;0.10;99.90
36416;DHT22;22447;44.530;18.620;2023-12-29T00:20:12;0.10;99.90
36416;DHT22;22447;44.530;18.620;2023-12-29T00:22:38;0.10;99.90
36416;DHT22;22447;44.530;18.620;2023-12-29T00:25:04;0.00;99.90
36416;DHT22;22447;44.530;18.620;2023-12-29T00:27:31;0.00;99.90
36416;DHT22;22447;44.530;18.620;2023-12-29T00:29:56;0.10;99.90
36416;DHT22;22447;44.530;18.620;2023-12-29T00:32:22;0.10;99.90
36416;DHT22;22447;44.530;18.620;2023-12-29T00:34:48;0.00;99.90
36416;DHT22;22447;44.530;18.620;2023-12-29T00:37:14;0.00;99.90
36416;DHT22;22447;44.530;18.620;2023-12-29T00:39:40;0.00;99.90
36416;DHT22;22447;44.530;18.620;2023-12-29T00:42:06;0.10;99.90
36416;DHT22;22447;44.530;18.620;2023-12-29T00:44:33;0.00;99.90
36416;DHT22;22447;44.530;18.620;2023-12-29T00:46:59;-0.10;99.90
36416;DHT22;22447;44.530;18.620;2023-12-29T00:49:26;0.00;99.90
36416;DHT22;22447;44.530;18.620;2023-12-29T00:51:52;0.10;99.90
36416;DHT22;22447;44.530;18.620;2023-12-29T00:54:18;0.00;99.90
36416;DHT22;22447;44.530;18.620;2023-12-29T00:56:51;-0.10;99.90
36416;DHT22;22447;44.530;18.620;2023-12-29T00:59:19;-0.10;99.90
36416;DHT22;22447;44.530;18.620;2023-12-29T01:01:45;-0.10;99.90
36416;DHT22;22447;44.530;18.620;2023-12-29T01:04:12;-0.30;99.90
36416;DHT22;22447;44.530;18.620;2023-12-29T01:06:38;-0.40;99.90
36416;DHT22;22447;44.530;18.620;2023-12-29T01:09:03;-0.40;99.90
36416;DHT22;22447;44.530;18.620;2023-12-29T01:11:29;-0.30;99.90
36416;DHT22;22447;44.530;18.620;2023-12-29T01:13:56;-0.40;99.90
36416;DHT22;22447;44.530;18.620;2023-12-29T01:16:22;-0.40;99.90
36416;DHT22;22447;44.530;18.620;2023-12-29T01:18:47;-0.30;99.90
36416;DHT22;22447;44.530;18.620;2023-12-29T01:21:13;-0.20;99.90
36416;DHT22;22447;44.530;18.620;2023-12-29T01:23:39;-0.20;99.90
36416;DHT22;22447;44.530;18.620;2023-12-29T01:26:05;-0.10;99.90
36416;DHT22;22447;44.530;18.620;2023-12-29T01:28:31;-0.10;99.90
36416;DHT22;22447;44.530;18.620;2023-12-29T01:30:57;0.00;99.90
36416;DHT22;22447;44.530;18.620;2023-12-29T01:33:24;-0.10;99.90
36416;DHT22;22447;44.530;18.620;2023-12-29T01:35:50;-0.20;99.90
36416;DHT22;22447;44.530;18.620;2023-12-29T01:38:15;-0.20;99.90
36416;DHT22;22447;44.530;18.620;2023-12-29T01:40:45;-0.20;99.90
36416;DHT22;22447;44.530;18.620;2023-12-29T01:43:13;-0.20;99.90
36416;DHT22;22447;44.530;18.620;2023-12-29T01:45:39;-0.10;99.90
36416;DHT22;22447;44.530;18.620;2023-12-29T01:48:05;-0.10;99.90
36416;DHT22;22447;44.530;18.620;2023-12-29T01:50:32;-0.10;99.90
36416;DHT22;22447;44.530;18.620;2023-12-29T01:53:01;-0.20;99.90
36416;DHT22;22447;44.530;18.620;2023-12-29T01:55:28;-0.20;99.90
36416;DHT22;22447;44.530;18.620;2023-12-29T01:57:54;-0.20;99.90
36416;DHT22;22447;44.530;18.620;2023-12-29T02:00:21;-0.20;99.90
36416;DHT22;22447;44.530;18.620;2023-12-29T02:02:48;-0.10;99.90
36416;DHT22;22447;44.530;18.620;2023-12-29T02:05:16;0.00;99.90
36416;DHT22;22447;44.530;18.620;2023-12-29T02:07:43;0.10;99.90
36416;DHT22;22447;44.530;18.620;2023-12-29T02:10:09;0.10;99.90
36416;DHT22;22447;44.530;18.620;2023-12-29T02:12:41;0.10;99.90
36416;DHT22;22447;44.530;18.620;2023-12-29T02:15:10;0.10;99.90
36416;DHT22;22447;44.530;18.620;2023-12-29T02:17:40;0.10;99.90
36416;DHT22;22447;44.530;18.620;2023-12-29T02:20:08;0.00;99.90
36416;DHT22;22447;44.530;18.620;2023-12-29T02:22:35;-0.10;99.90
36416;DHT22;22447;44.530;18.620;2023-12-29T02:25:01;0.00;99.90
36416;DHT22;22447;44.530;18.620;2023-12-29T02:32:48;0.00;99.90
36416;DHT22;22447;44.530;18.620;2023-12-29T02:35:27;0.00;99.90
36416;DHT22;22447;44.530;18.620;2023-12-29T02:37:54;-0.30;99.90
36416;DHT22;22447;44.530;18.620;2023-12-29T02:40:21;-0.10;99.90
36416;DHT22;22447;44.530;18.620;2023-12-29T02:42:48;-0.20;99.90
36416;DHT22;22447;44.530;18.620;2023-12-29T02:45:15;-0.20;99.90
36416;DHT22;22447;44.530;18.620;2023-12-29T02:47:42;-0.10;99.90
36416;DHT22;22447;44.530;18.620;2023-12-29T02:50:09;0.00;99.90
36416;DHT22;22447;44.530;18.620;2023-12-29T02:52:35;-0.10;99.90
36416;DHT22;22447;44.530;18.620;2023-12-29T02:55:02;-0.20;99.90
36416;DHT22;22447;44.530;18.620;2023-12-29T02:57:29;-0.20;99.90
36416;DHT22;22447;44.530;18.620;2023-12-29T02:59:56;-0.30;99.90
36416;DHT22;22447;44.530;18.620;2023-12-29T03:02:22;-0.20;99.90
36416;DHT22;22447;44.530;18.620;2023-12-29T03:04:48;0.00;99.90
36416;DHT22;22447;44.530;18.620;2023-12-29T03:07:16;0.00;99.90
36416;DHT22;22447;44.530;18.620;2023-12-29T03:09:42;0.00;99.90
36416;DHT22;22447;44.530;18.620;2023-12-29T03:12:08;-0.10;99.90
36416;DHT22;22447;44.530;18.620;2023-12-29T03:14:34;-0.20;99.90
36416;DHT22;22447;44.530;18.620;2023-12-29T03:17:00;-0.40;99.90
36416;DHT22;22447;44.530;18.620;2023-12-29T03:19:27;-0.40;99.90
36416;DHT22;22447;44.530;18.620;2023-12-29T03:21:53;-0.30;99.90
36416;DHT22;22447;44.530;18.620;2023-12-29T03:24:20;-0.50;99.90
36416;DHT22;22447;44.530;18.620;2023-12-29T03:26:48;-0.50;99.90
36416;DHT22;22447;44.530;18.620;2023-12-29T03:29:13;-0.50;99.90
36416;DHT22;22447;44.530;18.620;2023-12-29T03:31:39;-0.40;99.90
36416;DHT22;22447;44.530;18.620;2023-12-29T03:34:05;-0.40;99.90
36416;DHT22;22447;44.530;18.620;2023-12-29T03:36:32;-0.30;99.90
36416;DHT22;22447;44.530;18.620;2023-12-29T03:38:58;-0.40;99.90
36416;DHT22;22447;44.530;18.620;2023-12-29T03:41:23;-0.40;99.90
36416;DHT22;22447;44.530;18.620;2023-12-29T03:43:49;-0.40;99.90
36416;DHT22;22447;44.530;18.620;2023-12-29T03:46:20;-0.30;99.90
36416;DHT22;22447;44.530;18.620;2023-12-29T03:48:46;-0.30;99.90
36416;DHT22;22447;44.530;18.620;2023-12-29T03:51:13;-0.40;99.90
36416;DHT22;22447;44.530;18.620;2023-12-29T03:53:39;-0.30;99.90
36416;DHT22;22447;44.530;18.620;2023-12-29T03:56:14;-0.30;99.90
36416;DHT22;22447;44.530;18.620;2023-12-29T03:58:45;-0.20;99.90
36416;DHT22;22447;44.530;18.620;2023-12-29T04:01:12;-0.10;99.90
36416;DHT22;22447;44.530;18.620;2023-12-29T04:03:39;-0.10;99.90
36416;DHT22;22447;44.530;18.620;2023-12-29T04:06:06;0.00;99.90
36416;DHT22;22447;44.530;18.620;2023-12-29T04:08:33;-0.10;99.90
36416;DHT22;22447;44.530;18.620;2023-12-29T04:10:59;-0.20;99.90
36416;DHT22;22447;44.530;18.620;2023-12-29T04:13:25;-0.20;99.90
36416;DHT22;22447;44.530;18.620;2023-12-29T04:15:50;-0.20;99.90
36416;DHT22;22447;44.530;18.620;2023-12-29T04:18:17;-0.20;99.90
36416;DHT22;22447;44.530;18.620;2023-12-29T04:20:43;-0.10;99.90
36416;DHT22;22447;44.530;18.620;2023-12-29T04:23:11;-0.10;99.90
36416;DHT22;22447;44.530;18.620;2023-12-29T04:25:37;-0.10;99.90
36416;DHT22;22447;44.530;18.620;2023-12-29T04:28:06;0.00;99.90
36416;DHT22;22447;44.530;18.620;2023-12-29T04:30:32;0.00;99.90
36416;DHT22;22447;44.530;18.620;2023-12-29T04:32:58;0.00;99.90
36416;DHT22;22447;44.530;18.620;2023-12-29T04:35:23;0.20;99.90
36416;DHT22;22447;44.530;18.620;2023-12-29T04:37:49;0.20;99.90
36416;DHT22;22447;44.530;18.620;2023-12-29T04:40:17;0.20;99.90
36416;DHT22;22447;44.530;18.620;2023-12-29T04:42:42;0.20;99.90
36416;DHT22;22447;44.530;18.620;2023-12-29T04:45:09;0.40;99.90
36416;DHT22;22447;44.530;18.620;2023-12-29T04:47:36;0.40;99.90
36416;DHT22;22447;44.530;18.620;2023-12-29T04:50:02;0.40;99.90
36416;DHT22;22447;44.530;18.620;2023-12-29T04:52:28;0.30;99.90
36416;DHT22;22447;44.530;18.620;2023-12-29T04:54:54;0.30;99.90
36416;DHT22;22447;44.530;18.620;2023-12-29T04:57:20;0.30;99.90
36416;DHT22;22447;44.530;18.620;2023-12-29T04:59:46;0.30;99.90
36416;DHT22;22447;44.530;18.620;2023-12-29T05:02:11;0.30;99.90
36416;DHT22;22447;44.530;18.620;2023-12-29T05:04:37;0.30;99.90
36416;DHT22;22447;44.530;18.620;2023-12-29T05:07:08;0.50;99.90
36416;DHT22;22447;44.530;18.620;2023-12-29T05:09:35;0.60;99.90
36416;DHT22;22447;44.530;18.620;2023-12-29T05:12:01;0.80;99.90
36416;DHT22;22447;44.530;18.620;2023-12-29T05:14:26;0.70;99.90
36416;DHT22;22447;44.530;18.620;2023-12-29T05:16:52;0.50;99.90
36416;DHT22;22447;44.530;18.620;2023-12-29T05:19:18;0.60;99.90
36416;DHT22;22447;44.530;18.620;2023-12-29T05:21:44;0.70;99.90
36416;DHT22;22447;44.530;18.620;2023-12-29T05:24:11;0.70;99.90
36416;DHT22;22447;44.530;18.620;2023-12-29T05:26:37;0.70;99.90
36416;DHT22;22447;44.530;18.620;2023-12-29T05:29:03;0.70;99.90
36416;DHT22;22447;44.530;18.620;2023-12-29T05:31:29;0.70;99.90
36416;DHT22;22447;44.530;18.620;2023-12-29T05:33:56;0.80;99.90
36416;DHT22;22447;44.530;18.620;2023-12-29T05:36:21;0.90;99.90
36416;DHT22;22447;44.530;18.620;2023-12-29T05:38:47;0.90;99.90
36416;DHT22;22447;44.530;18.620;2023-12-29T05:41:14;0.90;99.90
36416;DHT22;22447;44.530;18.620;2023-12-29T05:43:39;1.00;99.90
36416;DHT22;22447;44.530;18.620;2023-12-29T05:46:12;1.00;99.90
36416;DHT22;22447;44.530;18.620;2023-12-29T05:48:41;1.00;99.90
36416;DHT22;22447;44.530;18.620;2023-12-29T05:51:10;1.10;99.90
36416;DHT22;22447;44.530;18.620;2023-12-29T05:53:39;1.00;99.90
36416;DHT22;22447;44.530;18.620;2023-12-29T05:56:05;1.00;99.90
36416;DHT22;22447;44.530;18.620;2023-12-29T05:58:31;1.00;99.90
36416;DHT22;22447;44.530;18.620;2023-12-29T06:00:57;1.00;99.90
36416;DHT22;22447;44.530;18.620;2023-12-29T06:03:27;1.00;99.90
36416;DHT22;22447;44.530;18.620;2023-12-29T06:05:53;1.00;99.90
36416;DHT22;22447;44.530;18.620;2023-12-29T06:08:19;1.00;99.90
36416;DHT22;22447;44.530;18.620;2023-12-29T06:10:45;1.10;99.90
36416;DHT22;22447;44.530;18.620;2023-12-29T06:13:11;1.20;99.90
36416;DHT22;22447;44.530;18.620;2023-12-29T06:15:37;1.20;99.90
36416;DHT22;22447;44.530;18.620;2023-12-29T06:18:04;1.40;99.90
36416;DHT22;22447;44.530;18.620;2023-12-29T06:20:30;1.40;99.90
36416;DHT22;22447;44.530;18.620;2023-12-29T06:22:56;1.50;99.90
36416;DHT22;22447;44.530;18.620;2023-12-29T06:25:22;1.50;99.90
36416;DHT22;22447;44.530;18.620;2023-12-29T06:27:48;1.40;99.90
36416;DHT22;22447;44.530;18.620;2023-12-29T06:30:14;1.40;99.90
36416;DHT22;22447;44.530;18.620;2023-12-29T06:32:41;1.40;99.90
36416;DHT22;22447;44.530;18.620;2023-12-29T06:35:07;1.50;99.90
36416;DHT22;22447;44.530;18.620;2023-12-29T06:37:36;1.50;99.90
36416;DHT22;22447;44.530;18.620;2023-12-29T06:40:04;1.60;99.90
36416;DHT22;22447;44.530;18.620;2023-12-29T06:42:29;1.50;99.90
36416;DHT22;22447;44.530;18.620;2023-12-29T06:44:55;1.60;99.90
36416;DHT22;22447;44.530;18.620;2023-12-29T06:47:21;1.50;99.90
36416;DHT22;22447;44.530;18.620;2023-12-29T06:49:47;1.60;99.90
36416;DHT22;22447;44.530;18.620;2023-12-29T06:52:13;1.60;99.90
36416;DHT22;22447;44.530;18.620;2023-12-29T06:54:39;1.60;99.90
36416;DHT22;22447;44.530;18.620;2023-12-29T06:57:05;1.60;99.90
36416;DHT22;22447;44.530;18.620;2023-12-29T06:59:31;1.40;99.90
36416;DHT22;22447;44.530;18.620;2023-12-29T07:01:57;1.20;99.90
36416;DHT22;22447;44.530;18.620;2023-12-29T07:04:22;1.10;99.90
36416;DHT22;22447;44.530;18.620;2023-12-29T07:06:48;1.20;99.90
36416;DHT22;22447;44.530;18.620;2023-12-29T07:09:15;1.20;99.90
36416;DHT22;22447;44.530;18.620;2023-12-29T07:11:40;1.30;99.90
36416;DHT22;22447;44.530;18.620;2023-12-29T07:14:06;1.20;99.90
36416;DHT22;22447;44.530;18.620;2023-12-29T07:16:32;1.20;99.90
36416;DHT22;22447;44.530;18.620;2023-12-29T07:18:58;1.30;99.90
36416;DHT22;22447;44.530;18.620;2023-12-29T07:21:24;1.40;99.90
36416;DHT22;22447;44.530;18.620;2023-12-29T07:23:50;1.50;99.90
36416;DHT22;22447;44.530;18.620;2023-12-29T07:26:15;1.60;99.90
36416;DHT22;22447;44.530;18.620;2023-12-29T07:28:41;1.50;99.90
36416;DHT22;22447;44.530;18.620;2023-12-29T07:31:07;1.60;99.90
36416;DHT22;22447;44.530;18.620;2023-12-29T07:33:33;1.60;99.90
36416;DHT22;22447;44.530;18.620;2023-12-29T07:35:59;1.70;99.90
36416;DHT22;22447;44.530;18.620;2023-12-29T07:38:25;1.50;99.90
36416;DHT22;22447;44.530;18.620;2023-12-29T07:40:52;1.60;99.90
36416;DHT22;22447;44.530;18.620;2023-12-29T07:43:17;1.50;99.90
36416;DHT22;22447;44.530;18.620;2023-12-29T07:45:43;1.50;99.90
36416;DHT22;22447;44.530;18.620;2023-12-29T07:48:09;1.70;99.90
36416;DHT22;22447;44.530;18.620;2023-12-29T07:50:35;2.10;99.90
36416;DHT22;22447;44.530;18.620;2023-12-29T07:53:02;2.40;99.90
36416;DHT22;22447;44.530;18.620;2023-12-29T07:55:31;2.90;99.90
36416;DHT22;22447;44.530;18.620;2023-12-29T07:57:57;3.50;99.90
36416;DHT22;22447;44.530;18.620;2023-12-29T08:00:23;3.90;99.90
36416;DHT22;22447;44.530;18.620;2023-12-29T08:02:49;4.40;99.90
36416;DHT22;22447;44.530;18.620;2023-12-29T08:05:15;5.00;99.90
36416;DHT22;22447;44.530;18.620;2023-12-29T08:07:42;5.30;99.90
36416;DHT22;22447;44.530;18.620;2023-12-29T08:10:18;5.80;99.90
36416;DHT22;22447;44.530;18.620;2023-12-29T08:12:44;6.30;99.60
36416;DHT22;22447;44.530;18.620;2023-12-29T08:15:10;6.80;97.70
36416;DHT22;22447;44.530;18.620;2023-12-29T08:17:36;7.20;96.20
36416;DHT22;22447;44.530;18.620;2023-12-29T08:20:03;7.40;95.00
36416;DHT22;22447;44.530;18.620;2023-12-29T08:22:30;7.30;93.30
36416;DHT22;22447;44.530;18.620;2023-12-29T08:24:58;8.00;93.30
36416;DHT22;22447;44.530;18.620;2023-12-29T08:27:24;7.90;91.90
36416;DHT22;22447;44.530;18.620;2023-12-29T08:29:53;8.20;91.90
36416;DHT22;22447;44.530;18.620;2023-12-29T08:32:19;8.30;91.20
36416;DHT22;22447;44.530;18.620;2023-12-29T08:34:46;8.10;91.50
36416;DHT22;22447;44.530;18.620;2023-12-29T08:37:12;8.30;90.50
36416;DHT22;22447;44.530;18.620;2023-12-29T08:39:38;8.70;90.20
36416;DHT22;22447;44.530;18.620;2023-12-29T08:42:04;8.60;90.00
36416;DHT22;22447;44.530;18.620;2023-12-29T08:44:30;8.60;89.00
36416;DHT22;22447;44.530;18.620;2023-12-29T08:46:55;9.30;87.90
36416;DHT22;22447;44.530;18.620;2023-12-29T08:49:21;9.00;89.00
36416;DHT22;22447;44.530;18.620;2023-12-29T08:51:47;9.30;88.30
36416;DHT22;22447;44.530;18.620;2023-12-29T08:54:13;8.80;89.30
36416;DHT22;22447;44.530;18.620;2023-12-29T08:56:39;9.00;90.00
36416;DHT22;22447;44.530;18.620;2023-12-29T08:59:05;9.70;89.80
36416;DHT22;22447;44.530;18.620;2023-12-29T09:01:31;10.90;89.20
36416;DHT22;22447;44.530;18.620;2023-12-29T09:03:59;11.30;85.90
36416;DHT22;22447;44.530;18.620;2023-12-29T09:06:25;12.10;83.40
36416;DHT22;22447;44.530;18.620;2023-12-29T09:08:51;12.70;79.70
36416;DHT22;22447;44.530;18.620;2023-12-29T09:11:17;12.10;76.50
36416;DHT22;22447;44.530;18.620;2023-12-29T09:13:43;11.80;75.70
36416;DHT22;22447;44.530;18.620;2023-12-29T09:16:09;10.80;79.30
36416;DHT22;22447;44.530;18.620;2023-12-29T09:18:35;9.60;84.70
36416;DHT22;22447;44.530;18.620;2023-12-29T09:21:01;9.10;88.30
36416;DHT22;22447;44.530;18.620;2023-12-29T09:23:27;8.90;90.00
36416;DHT22;22447;44.530;18.620;2023-12-29T09:25:53;8.40;90.80
36416;DHT22;22447;44.530;18.620;2023-12-29T09:28:19;8.30;92.30
36416;DHT22;22447;44.530;18.620;2023-12-29T09:30:45;8.20;92.40
36416;DHT22;22447;44.530;18.620;2023-12-29T09:33:10;8.40;92.60
36416;DHT22;22447;44.530;18.620;2023-12-29T09:35:39;8.10;92.30
36416;DHT22;22447;44.530;18.620;2023-12-29T09:38:05;8.10;93.90
36416;DHT22;22447;44.530;18.620;2023-12-29T09:40:31;8.40;93.90
36416;DHT22;22447;44.530;18.620;2023-12-29T09:42:57;8.60;93.90
36416;DHT22;22447;44.530;18.620;2023-12-29T09:45:26;9.30;93.60
36416;DHT22;22447;44.530;18.620;2023-12-29T09:47:52;9.60;92.20
36416;DHT22;22447;44.530;18.620;2023-12-29T09:50:21;9.60;92.10
36416;DHT22;22447;44.530;18.620;2023-12-29T09:52:48;10.10;91.90
36416;DHT22;22447;44.530;18.620;2023-12-29T09:55:15;9.70;90.90
36416;DHT22;22447;44.530;18.620;2023-12-29T09:57:42;9.50;92.20
36416;DHT22;22447;44.530;18.620;2023-12-29T10:00:11;9.80;92.00
36416;DHT22;22447;44.530;18.620;2023-12-29T10:02:38;9.40;92.20
36416;DHT22;22447;44.530;18.620;2023-12-29T10:05:04;9.60;92.30
36416;DHT22;22447;44.530;18.620;2023-12-29T10:07:38;9.40;92.30
36416;DHT22;22447;44.530;18.620;2023-12-29T10:10:05;8.90;92.90
36416;DHT22;22447;44.530;18.620;2023-12-29T10:12:36;8.50;93.90
36416;DHT22;22447;44.530;18.620;2023-12-29T10:15:24;8.40;94.60
36416;DHT22;22447;44.530;18.620;2023-12-29T10:20:57;7.60;96.30
36416;DHT22;22447;44.530;18.620;2023-12-29T10:24:05;7.40;96.70
36416;DHT22;22447;44.530;18.620;2023-12-29T10:26:36;7.10;97.40
36416;DHT22;22447;44.530;18.620;2023-12-29T10:29:02;7.00;98.20
36416;DHT22;22447;44.530;18.620;2023-12-29T10:31:28;6.70;98.90
36416;DHT22;22447;44.530;18.620;2023-12-29T10:36:52;6.70;99.90
36416;DHT22;22447;44.530;18.620;2023-12-29T10:39:18;6.60;99.90
36416;DHT22;22447;44.530;18.620;2023-12-29T10:41:44;6.50;99.90
36416;DHT22;22447;44.530;18.620;2023-12-29T10:44:10;6.40;99.90
36416;DHT22;22447;44.530;18.620;2023-12-29T10:46:36;6.50;99.90
36416;DHT22;22447;44.530;18.620;2023-12-29T10:49:12;6.70;99.90
36416;DHT22;22447;44.530;18.620;2023-12-29T10:51:39;6.90;99.90
36416;DHT22;22447;44.530;18.620;2023-12-29T10:54:06;7.00;99.90
36416;DHT22;22447;44.530;18.620;2023-12-29T10:56:32;7.10;99.90
36416;DHT22;22447;44.530;18.620;2023-12-29T10:59:05;7.10;99.90
36416;DHT22;22447;44.530;18.620;2023-12-29T11:01:35;7.20;99.90
36416;DHT22;22447;44.530;18.620;2023-12-29T11:04:03;7.30;99.90
36416;DHT22;22447;44.530;18.620;2023-12-29T11:06:30;7.30;99.90
36416;DHT22;22447;44.530;18.620;2023-12-29T11:09:04;7.20;99.90
36416;DHT22;22447;44.530;18.620;2023-12-29T11:11:31;7.30;99.90
36416;DHT22;22447;44.530;18.620;2023-12-29T11:13:57;7.30;99.90
36416;DHT22;22447;44.530;18.620;2023-12-29T11:16:24;7.50;99.90
36416;DHT22;22447;44.530;18.620;2023-12-29T11:18:51;7.50;99.90
36416;DHT22;22447;44.530;18.620;2023-12-29T11:21:22;7.40;99.90
36416;DHT22;22447;44.530;18.620;2023-12-29T11:23:48;7.30;99.90
36416;DHT22;22447;44.530;18.620;2023-12-29T11:26:15;7.20;99.90
36416;DHT22;22447;44.530;18.620;2023-12-29T11:28:42;7.30;99.90
36416;DHT22;22447;44.530;18.620;2023-12-29T11:31:08;7.30;99.90
36416;DHT22;22447;44.530;18.620;2023-12-29T11:33:39;7.40;99.90
36416;DHT22;22447;44.530;18.620;2023-12-29T11:36:18;7.50;99.90
36416;DHT22;22447;44.530;18.620;2023-12-29T11:38:59;7.50;99.90
36416;DHT22;22447;44.530;18.620;2023-12-29T11:44:27;7.60;99.90
36416;DHT22;22447;44.530;18.620;2023-12-29T11:46:53;7.70;99.90
36416;DHT22;22447;44.530;18.620;2023-12-29T11:49:20;7.80;99.90
36416;DHT22;22447;44.530;18.620;2023-12-29T11:51:49;7.70;99.90
36416;DHT22;22447;44.530;18.620;2023-12-29T11:54:26;7.90;99.90
36416;DHT22;22447;44.530;18.620;2023-12-29T11:56:55;7.90;99.90
36416;DHT22;22447;44.530;18.620;2023-12-29T11:59:25;8.00;99.90
36416;DHT22;22447;44.530;18.620;2023-12-29T12:01:53;7.90;99.90
36416;DHT22;22447;44.530;18.620;2023-12-29T12:07:15;7.90;99.90
36416;DHT22;22447;44.530;18.620;2023-12-29T12:09:41;8.00;99.90
36416;DHT22;22447;44.530;18.620;2023-12-29T12:12:07;8.00;99.90
36416;DHT22;22447;44.530;18.620;2023-12-29T12:14:52;8.00;99.90
36416;DHT22;22447;44.530;18.620;2023-12-29T12:17:34;8.10;99.90
36416;DHT22;22447;44.530;18.620;2023-12-29T12:20:07;8.10;99.90
36416;DHT22;22447;44.530;18.620;2023-12-29T12:22:35;8.30;99.90
36416;DHT22;22447;44.530;18.620;2023-12-29T12:25:02;8.30;99.90
36416;DHT22;22447;44.530;18.620;2023-12-29T12:27:30;8.40;99.90
36416;DHT22;22447;44.530;18.620;2023-12-29T12:29:58;8.40;99.90
36416;DHT22;22447;44.530;18.620;2023-12-29T12:32:28;8.60;99.90
36416;DHT22;22447;44.530;18.620;2023-12-29T12:34:55;8.60;99.90
36416;DHT22;22447;44.530;18.620;2023-12-29T12:37:26;8.60;99.90
36416;DHT22;22447;44.530;18.620;2023-12-29T12:39:53;8.70;99.90
36416;DHT22;22447;44.530;18.620;2023-12-29T12:42:19;8.80;99.90
36416;DHT22;22447;44.530;18.620;2023-12-29T12:45:01;9.00;99.90
36416;DHT22;22447;44.530;18.620;2023-12-29T12:47:34;8.90;99.90
36416;DHT22;22447;44.530;18.620;2023-12-29T12:50:01;9.00;99.90
36416;DHT22;22447;44.530;18.620;2023-12-29T12:52:31;9.10;99.90
36416;DHT22;22447;44.530;18.620;2023-12-29T12:54:58;9.10;99.90
36416;DHT22;22447;44.530;18.620;2023-12-29T12:57:24;9.10;99.90
36416;DHT22;22447;44.530;18.620;2023-12-29T12:59:50;9.10;99.90
36416;DHT22;22447;44.530;18.620;2023-12-29T13:02:17;9.20;99.90
36416;DHT22;22447;44.530;18.620;2023-12-29T13:04:43;9.10;99.90
36416;DHT22;22447;44.530;18.620;2023-12-29T13:07:09;9.10;99.90
36416;DHT22;22447;44.530;18.620;2023-12-29T13:09:36;9.20;99.90
36416;DHT22;22447;44.530;18.620;2023-12-29T13:12:12;9.20;99.90
36416;DHT22;22447;44.530;18.620;2023-12-29T13:14:39;9.10;99.90
36416;DHT22;22447;44.530;18.620;2023-12-29T13:17:07;9.10;99.90
36416;DHT22;22447;44.530;18.620;2023-12-29T13:19:33;9.10;99.90
36416;DHT22;22447;44.530;18.620;2023-12-29T13:22:00;9.20;99.90
36416;DHT22;22447;44.530;18.620;2023-12-29T13:24:26;9.10;99.90
36416;DHT22;22447;44.530;18.620;2023-12-29T13:27:02;9.20;99.90
36416;DHT22;22447;44.530;18.620;2023-12-29T13:29:28;9.10;99.90
36416;DHT22;22447;44.530;18.620;2023-12-29T13:32:01;9.20;99.90
36416;DHT22;22447;44.530;18.620;2023-12-29T13:42:22;9.20;99.90
36416;DHT22;22447;44.530;18.620;2023-12-29T13:44:50;9.20;99.90
36416;DHT22;22447;44.530;18.620;2023-12-29T13:47:18;9.20;99.90
36416;DHT22;22447;44.530;18.620;2023-12-29T13:49:46;9.00;99.90
36416;DHT22;22447;44.530;18.620;2023-12-29T13:52:14;9.00;99.90
36416;DHT22;22447;44.530;18.620;2023-12-29T13:54:41;8.80;99.90
36416;DHT22;22447;44.530;18.620;2023-12-29T13:57:10;8.80;99.90
36416;DHT22;22447;44.530;18.620;2023-12-29T13:59:36;8.70;99.90
36416;DHT22;22447;44.530;18.620;2023-12-29T14:02:28;8.70;99.90
36416;DHT22;22447;44.530;18.620;2023-12-29T14:05:15;8.70;99.90
36416;DHT22;22447;44.530;18.620;2023-12-29T14:07:59;8.50;99.90
36416;DHT22;22447;44.530;18.620;2023-12-29T14:10:32;8.60;99.90
36416;DHT22;22447;44.530;18.620;2023-12-29T14:15:41;8.50;99.90
36416;DHT22;22447;44.530;18.620;2023-12-29T14:18:33;8.50;99.90
36416;DHT22;22447;44.530;18.620;2023-12-29T14:23:58;8.50;99.90
36416;DHT22;22447;44.530;18.620;2023-12-29T14:26:24;8.40;99.90
36416;DHT22;22447;44.530;18.620;2023-12-29T14:29:07;8.40;99.90
36416;DHT22;22447;44.530;18.620;2023-12-29T14:31:39;8.50;99.90
36416;DHT22;22447;44.530;18.620;2023-12-29T14:34:07;8.50;99.90
36416;DHT22;22447;44.530;18.620;2023-12-29T14:36:34;8.60;99.90
36416;DHT22;22447;44.530;18.620;2023-12-29T14:39:00;8.50;99.90
36416;DHT22;22447;44.530;18.620;2023-12-29T14:41:26;8.40;99.90
36416;DHT22;22447;44.530;18.620;2023-12-29T14:43:53;8.40;99.90
36416;DHT22;22447;44.530;18.620;2023-12-29T14:46:19;8.50;99.90
36416;DHT22;22447;44.530;18.620;2023-12-29T14:48:45;8.40;99.90
36416;DHT22;22447;44.530;18.620;2023-12-29T14:51:11;8.40;99.90
36416;DHT22;22447;44.530;18.620;2023-12-29T14:53:37;8.50;99.90
36416;DHT22;22447;44.530;18.620;2023-12-29T14:56:04;8.50;99.90
36416;DHT22;22447;44.530;18.620;2023-12-29T14:58:30;8.30;99.90
36416;DHT22;22447;44.530;18.620;2023-12-29T15:00:58;8.30;99.90
36416;DHT22;22447;44.530;18.620;2023-12-29T15:03:24;8.40;99.90
36416;DHT22;22447;44.530;18.620;2023-12-29T15:05:50;8.40;99.90
36416;DHT22;22447;44.530;18.620;2023-12-29T15:08:16;8.40;99.90
36416;DHT22;22447;44.530;18.620;2023-12-29T15:10:43;8.50;99.90
36416;DHT22;22447;44.530;18.620;2023-12-29T15:13:12;8.40;99.90
36416;DHT22;22447;44.530;18.620;2023-12-29T15:15:38;8.50;99.90
36416;DHT22;22447;44.530;18.620;2023-12-29T15:18:05;8.40;99.90
36416;DHT22;22447;44.530;18.620;2023-12-29T15:20:31;8.40;99.90
36416;DHT22;22447;44.530;18.620;2023-12-29T15:22:57;8.40;99.90
36416;DHT22;22447;44.530;18.620;2023-12-29T15:25:25;8.40;99.90
36416;DHT22;22447;44.530;18.620;2023-12-29T15:27:52;8.40;99.90
36416;DHT22;22447;44.530;18.620;2023-12-29T15:30:18;8.30;99.90
36416;DHT22;22447;44.530;18.620;2023-12-29T15:32:44;8.20;99.90
36416;DHT22;22447;44.530;18.620;2023-12-29T15:35:10;8.20;99.90
36416;DHT22;22447;44.530;18.620;2023-12-29T15:37:36;8.20;99.90
36416;DHT22;22447;44.530;18.620;2023-12-29T15:40:02;8.10;99.90
36416;DHT22;22447;44.530;18.620;2023-12-29T15:42:29;8.20;99.90
36416;DHT22;22447;44.530;18.620;2023-12-29T15:44:55;8.10;99.90
36416;DHT22;22447;44.530;18.620;2023-12-29T15:47:21;8.00;99.90
36416;DHT22;22447;44.530;18.620;2023-12-29T15:49:47;8.00;99.90
36416;DHT22;22447;44.530;18.620;2023-12-29T15:52:13;8.00;99.90
36416;DHT22;22447;44.530;18.620;2023-12-29T15:54:39;8.00;99.90
36416;DHT22;22447;44.530;18.620;2023-12-29T15:57:05;7.80;99.90
36416;DHT22;22447;44.530;18.620;2023-12-29T15:59:35;7.80;99.90